createdAt,value
2018-05-27T00:00:13.679Z,989.04
2018-05-27T00:01:13.873Z,989.05
2018-05-27T00:02:14.057Z,989.03
2018-05-27T00:03:14.249Z,989.05
2018-05-27T00:04:14.432Z,989.06
2018-05-27T00:05:14.596Z,989.02
2018-05-27T00:06:14.787Z,989.03
2018-05-27T00:07:14.959Z,988.99
2018-05-27T00:08:15.145Z,989.01
2018-05-27T00:09:15.329Z,989.00
2018-05-27T00:10:15.505Z,989.00
2018-05-27T00:11:15.698Z,988.99
2018-05-27T00:12:15.873Z,989.02
2018-05-27T00:13:16.069Z,989.03
2018-05-27T00:14:16.248Z,989.01
2018-05-27T00:15:16.420Z,989.01
2018-05-27T00:16:16.619Z,988.95
2018-05-27T00:17:16.783Z,988.97
2018-05-27T00:18:16.967Z,988.93
2018-05-27T00:19:17.148Z,988.90
2018-05-27T00:20:17.335Z,988.88
2018-05-27T00:21:17.519Z,988.89
2018-05-27T00:22:17.723Z,988.88
2018-05-27T00:23:17.883Z,988.88
2018-05-27T00:24:18.067Z,988.82
2018-05-27T00:25:18.253Z,988.83
2018-05-27T00:26:18.437Z,988.83
2018-05-27T00:27:18.622Z,988.87
2018-05-27T00:28:18.789Z,988.83
2018-05-27T00:29:18.974Z,988.83
2018-05-27T00:30:19.164Z,988.83
2018-05-27T00:31:19.339Z,988.81
2018-05-27T00:32:19.529Z,988.82
2018-05-27T00:33:19.719Z,988.79
2018-05-27T00:34:19.899Z,988.78
2018-05-27T00:35:20.103Z,988.79
2018-05-27T00:36:20.266Z,988.76
2018-05-27T00:37:20.450Z,988.75
2018-05-27T00:38:20.622Z,988.74
2018-05-27T00:39:20.814Z,988.73
2018-05-27T00:40:20.976Z,988.68
2018-05-27T00:41:21.164Z,988.72
2018-05-27T00:42:21.351Z,988.68
2018-05-27T00:43:21.531Z,988.66
2018-05-27T00:44:21.722Z,988.67
2018-05-27T00:45:21.921Z,988.68
2018-05-27T00:46:22.105Z,988.66
2018-05-27T00:47:22.297Z,988.65
2018-05-27T00:48:22.474Z,988.64
2018-05-27T00:49:22.658Z,988.68
2018-05-27T00:50:22.843Z,988.64
2018-05-27T00:51:23.030Z,988.65
2018-05-27T00:52:23.206Z,988.64
2018-05-27T00:53:23.392Z,988.63
2018-05-27T00:54:23.568Z,988.61
2018-05-27T00:55:23.747Z,988.61
2018-05-27T00:56:23.934Z,988.61
2018-05-27T00:57:24.112Z,988.59
2018-05-27T00:58:24.297Z,988.60
2018-05-27T00:59:24.462Z,988.61
2018-05-27T01:00:24.686Z,988.58
2018-05-27T01:01:24.835Z,988.58
2018-05-27T01:02:25.020Z,988.58
2018-05-27T01:03:25.215Z,988.53
2018-05-27T01:04:25.369Z,988.51
2018-05-27T01:05:25.554Z,988.51
2018-05-27T01:06:25.740Z,988.54
2018-05-27T01:07:25.931Z,988.55
2018-05-27T01:08:26.110Z,988.53
2018-05-27T01:09:26.299Z,988.53
2018-05-27T01:10:26.508Z,988.51
2018-05-27T01:11:26.661Z,988.50
2018-05-27T01:12:26.835Z,988.47
2018-05-27T01:13:27.033Z,988.47
2018-05-27T01:14:27.249Z,988.40
2018-05-27T01:15:27.415Z,988.41
2018-05-27T01:16:27.597Z,988.40
2018-05-27T01:17:27.790Z,988.36
2018-05-27T01:18:27.950Z,988.38
2018-05-27T01:19:28.135Z,988.35
2018-05-27T01:20:28.326Z,988.35
2018-05-27T01:21:28.506Z,988.35
2018-05-27T01:22:28.685Z,988.34
2018-05-27T01:23:28.873Z,988.34
2018-05-27T01:24:29.049Z,988.33
2018-05-27T01:25:29.225Z,988.29
2018-05-27T01:26:29.404Z,988.30
2018-05-27T01:27:29.604Z,988.29
2018-05-27T01:28:29.774Z,988.28
2018-05-27T01:29:29.964Z,988.30
2018-05-27T01:30:30.140Z,988.30
2018-05-27T01:31:30.338Z,988.35
2018-05-27T01:32:30.529Z,988.34
2018-05-27T01:33:30.705Z,988.34
2018-05-27T01:34:30.902Z,988.32
2018-05-27T01:35:31.097Z,988.37
2018-05-27T01:36:31.263Z,988.35
2018-05-27T01:37:31.447Z,988.38
2018-05-27T01:38:31.642Z,988.31
2018-05-27T01:39:31.810Z,988.31
2018-05-27T01:40:31.977Z,988.35
2018-05-27T01:41:32.172Z,988.33
2018-05-27T01:42:32.378Z,988.33
2018-05-27T01:43:32.540Z,988.31
2018-05-27T01:44:32.786Z,988.32
2018-05-27T01:45:32.911Z,988.30
2018-05-27T01:46:33.103Z,988.26
2018-05-27T01:47:33.264Z,988.31
2018-05-27T01:48:40.184Z,988.26
2018-05-27T01:49:33.632Z,988.27
2018-05-27T01:50:33.799Z,988.27
2018-05-27T01:51:33.985Z,988.29
2018-05-27T01:52:34.165Z,988.28
2018-05-27T01:53:34.347Z,988.26
2018-05-27T01:54:34.520Z,988.28
2018-05-27T01:55:34.702Z,988.26
2018-05-27T01:56:34.889Z,988.25
2018-05-27T01:57:35.076Z,988.23
2018-05-27T01:58:35.278Z,988.18
2018-05-27T01:59:35.470Z,988.20
2018-05-27T02:00:35.631Z,988.22
2018-05-27T02:01:35.818Z,988.20
2018-05-27T02:02:36.000Z,988.23
2018-05-27T02:03:36.176Z,988.19
2018-05-27T02:04:36.355Z,988.19
2018-05-27T02:05:36.567Z,988.21
2018-05-27T02:06:36.721Z,988.20
2018-05-27T02:07:36.912Z,988.18
2018-05-27T02:08:37.094Z,988.17
2018-05-27T02:09:37.277Z,988.16
2018-05-27T02:10:37.464Z,988.10
2018-05-27T02:11:37.666Z,988.12
2018-05-27T02:12:37.847Z,988.08
2018-05-27T02:13:38.031Z,988.08
2018-05-27T02:14:38.207Z,988.06
2018-05-27T02:15:38.412Z,988.04
2018-05-27T02:16:38.578Z,988.03
2018-05-27T02:17:38.788Z,988.03
2018-05-27T02:18:38.936Z,988.01
2018-05-27T02:19:39.143Z,987.98
2018-05-27T02:20:39.313Z,987.98
2018-05-27T02:21:39.493Z,987.97
2018-05-27T02:22:39.664Z,987.96
2018-05-27T02:23:39.846Z,987.95
2018-05-27T02:24:40.021Z,987.96
2018-05-27T02:25:40.195Z,987.94
2018-05-27T02:26:40.372Z,987.96
2018-05-27T02:27:40.558Z,987.94
2018-05-27T02:28:40.753Z,987.91
2018-05-27T02:29:40.904Z,987.95
2018-05-27T02:30:41.151Z,987.95
2018-05-27T02:31:41.289Z,987.96
2018-05-27T02:32:41.472Z,987.92
2018-05-27T02:33:41.655Z,987.91
2018-05-27T02:34:41.844Z,987.89
2018-05-27T02:35:41.998Z,987.90
2018-05-27T02:36:42.190Z,987.87
2018-05-27T02:37:42.361Z,987.87
2018-05-27T02:38:42.545Z,987.84
2018-05-27T02:39:42.746Z,987.84
2018-05-27T02:40:42.907Z,987.81
2018-05-27T02:41:43.139Z,987.83
2018-05-27T02:42:43.270Z,987.81
2018-05-27T02:43:43.479Z,987.79
2018-05-27T02:44:43.663Z,987.77
2018-05-27T02:45:43.812Z,987.76
2018-05-27T02:46:43.990Z,987.76
2018-05-27T02:47:44.173Z,987.74
2018-05-27T02:48:44.362Z,987.73
2018-05-27T02:49:44.534Z,987.72
2018-05-27T02:50:44.714Z,987.72
2018-05-27T02:51:44.894Z,987.75
2018-05-27T02:52:45.090Z,987.71
2018-05-27T02:53:45.272Z,987.75
2018-05-27T02:54:45.452Z,987.74
2018-05-27T02:55:45.637Z,987.70
2018-05-27T02:56:45.832Z,987.71
2018-05-27T02:57:46.001Z,987.77
2018-05-27T02:58:46.182Z,987.75
2018-05-27T02:59:46.372Z,987.74
2018-05-27T03:00:46.546Z,987.74
2018-05-27T03:01:46.729Z,987.76
2018-05-27T03:02:46.893Z,987.75
2018-05-27T03:03:47.079Z,987.73
2018-05-27T03:04:47.256Z,987.76
2018-05-27T03:05:47.447Z,987.71
2018-05-27T03:06:47.610Z,987.70
2018-05-27T03:07:47.813Z,987.69
2018-05-27T03:08:47.986Z,987.71
2018-05-27T03:09:48.211Z,987.69
2018-05-27T03:10:48.361Z,987.72
2018-05-27T03:11:48.540Z,987.74
2018-05-27T03:12:48.727Z,987.75
2018-05-27T03:13:48.890Z,987.78
2018-05-27T03:14:49.084Z,987.78
2018-05-27T03:15:49.286Z,987.76
2018-05-27T03:16:49.490Z,987.80
2018-05-27T03:17:49.656Z,987.80
2018-05-27T03:18:49.841Z,987.80
2018-05-27T03:19:50.025Z,987.75
2018-05-27T03:20:50.224Z,987.77
2018-05-27T03:21:50.397Z,987.79
2018-05-27T03:22:50.583Z,987.79
2018-05-27T03:23:50.771Z,987.79
2018-05-27T03:24:50.957Z,987.77
2018-05-27T03:25:51.145Z,987.81
2018-05-27T03:26:51.325Z,987.81
2018-05-27T03:27:51.503Z,987.76
2018-05-27T03:28:51.689Z,987.79
2018-05-27T03:29:51.869Z,987.82
2018-05-27T03:30:52.054Z,987.80
2018-05-27T03:31:52.240Z,987.78
2018-05-27T03:32:52.431Z,987.82
2018-05-27T03:33:52.616Z,987.79
2018-05-27T03:34:52.783Z,987.76
2018-05-27T03:35:52.966Z,987.77
2018-05-27T03:36:53.152Z,987.74
2018-05-27T03:37:53.354Z,987.76
2018-05-27T03:38:53.545Z,987.73
2018-05-27T03:39:53.694Z,987.76
2018-05-27T03:40:53.897Z,987.76
2018-05-27T03:41:54.062Z,987.74
2018-05-27T03:42:54.253Z,987.73
2018-05-27T03:43:54.472Z,987.74
2018-05-27T03:44:54.615Z,987.75
2018-05-27T03:45:54.795Z,987.74
2018-05-27T03:46:54.977Z,987.80
2018-05-27T03:47:55.152Z,987.73
2018-05-27T03:48:55.338Z,987.75
2018-05-27T03:49:55.523Z,987.73
2018-05-27T03:50:55.701Z,987.74
2018-05-27T03:51:55.899Z,987.79
2018-05-27T03:52:56.074Z,987.80
2018-05-27T03:53:56.263Z,987.80
2018-05-27T03:54:56.461Z,987.79
2018-05-27T03:55:56.635Z,987.81
2018-05-27T03:56:56.812Z,987.84
2018-05-27T03:57:56.998Z,987.85
2018-05-27T03:58:57.180Z,987.85
2018-05-27T03:59:57.374Z,987.90
2018-05-27T04:00:57.557Z,987.89
2018-05-27T04:01:57.730Z,987.88
2018-05-27T04:02:57.913Z,987.89
2018-05-27T04:03:58.108Z,987.91
2018-05-27T04:04:58.286Z,987.91
2018-05-27T04:05:58.496Z,987.90
2018-05-27T04:06:58.656Z,987.90
2018-05-27T04:07:58.844Z,987.88
2018-05-27T04:08:59.036Z,987.81
2018-05-27T04:09:59.209Z,987.85
2018-05-27T04:10:59.399Z,987.86
2018-05-27T04:11:59.587Z,987.87
2018-05-27T04:12:59.752Z,987.90
2018-05-27T04:13:59.942Z,987.86
2018-05-27T04:15:00.138Z,987.88
2018-05-27T04:16:00.323Z,987.89
2018-05-27T04:17:00.505Z,987.87
2018-05-27T04:18:00.683Z,987.90
2018-05-27T04:19:00.856Z,987.88
2018-05-27T04:20:01.061Z,987.90
2018-05-27T04:21:01.222Z,987.92
2018-05-27T04:22:01.405Z,987.95
2018-05-27T04:23:01.581Z,987.98
2018-05-27T04:24:01.759Z,988.00
2018-05-27T04:25:01.931Z,988.00
2018-05-27T04:26:02.136Z,987.98
2018-05-27T04:27:02.323Z,987.98
2018-05-27T04:28:02.506Z,987.95
2018-05-27T04:29:02.681Z,988.00
2018-05-27T04:30:02.869Z,988.01
2018-05-27T04:31:03.041Z,987.99
2018-05-27T04:32:03.205Z,987.99
2018-05-27T04:33:03.405Z,988.02
2018-05-27T04:34:03.605Z,988.01
2018-05-27T04:35:03.752Z,988.00
2018-05-27T04:36:03.946Z,988.01
2018-05-27T04:37:04.136Z,987.99
2018-05-27T04:38:04.314Z,987.95
2018-05-27T04:39:04.494Z,987.87
2018-05-27T04:40:04.735Z,987.89
2018-05-27T04:41:04.860Z,987.77
2018-05-27T04:42:05.043Z,987.70
2018-05-27T04:43:05.236Z,987.55
2018-05-27T04:44:05.409Z,987.45
2018-05-27T04:45:05.600Z,987.31
2018-05-27T04:46:05.782Z,987.39
2018-05-27T04:47:05.973Z,987.38
2018-05-27T04:48:06.162Z,987.43
2018-05-27T04:49:06.340Z,987.44
2018-05-27T04:50:06.530Z,987.37
2018-05-27T04:51:06.716Z,987.36
2018-05-27T04:52:06.904Z,987.32
2018-05-27T04:53:07.095Z,987.34
2018-05-27T04:54:07.288Z,987.31
2018-05-27T04:55:07.452Z,987.31
2018-05-27T04:56:07.638Z,987.32
2018-05-27T04:57:07.828Z,987.21
2018-05-27T04:58:08.013Z,987.23
2018-05-27T04:59:08.256Z,987.25
2018-05-27T05:00:08.390Z,987.24
2018-05-27T05:01:08.580Z,987.28
2018-05-27T05:02:08.777Z,987.36
2018-05-27T05:03:08.965Z,987.36
2018-05-27T05:04:09.155Z,987.44
2018-05-27T05:05:09.323Z,987.54
2018-05-27T05:06:09.528Z,987.67
2018-05-27T05:07:09.703Z,987.69
2018-05-27T05:08:09.887Z,987.75
2018-05-27T05:09:10.079Z,987.81
2018-05-27T05:10:10.286Z,987.88
2018-05-27T05:11:10.465Z,987.98
2018-05-27T05:12:10.637Z,988.04
2018-05-27T05:13:10.838Z,988.12
2018-05-27T05:14:11.008Z,988.20
2018-05-27T05:15:11.231Z,988.30
2018-05-27T05:16:11.390Z,988.38
2018-05-27T05:17:11.580Z,988.50
2018-05-27T05:18:11.764Z,988.59
2018-05-27T05:19:11.944Z,988.66
2018-05-27T05:20:12.147Z,988.62
2018-05-27T05:21:12.339Z,988.48
2018-05-27T05:22:12.589Z,988.42
2018-05-27T05:23:12.730Z,988.37
2018-05-27T05:24:12.910Z,988.35
2018-05-27T05:25:13.099Z,988.37
2018-05-27T05:26:13.276Z,988.37
2018-05-27T05:27:13.468Z,988.39
2018-05-27T05:28:13.689Z,988.38
2018-05-27T05:29:13.827Z,988.30
2018-05-27T05:30:14.023Z,988.31
2018-05-27T05:31:14.209Z,988.30
2018-05-27T05:32:14.407Z,988.32
2018-05-27T05:33:14.580Z,988.34
2018-05-27T05:34:14.777Z,988.33
2018-05-27T05:35:14.966Z,988.29
2018-05-27T05:36:15.157Z,988.28
2018-05-27T05:37:15.347Z,988.26
2018-05-27T05:38:15.536Z,988.27
2018-05-27T05:39:15.729Z,988.23
2018-05-27T05:40:15.918Z,988.24
2018-05-27T05:41:16.112Z,988.20
2018-05-27T05:42:16.314Z,988.17
2018-05-27T05:43:16.505Z,988.22
2018-05-27T05:44:16.682Z,988.21
2018-05-27T05:45:16.867Z,988.19
2018-05-27T05:46:17.051Z,988.18
2018-05-27T05:47:17.235Z,988.25
2018-05-27T05:48:17.434Z,988.22
2018-05-27T05:49:17.651Z,988.26
2018-05-27T05:50:17.809Z,988.29
2018-05-27T05:51:18.022Z,988.32
2018-05-27T05:52:18.169Z,988.34
2018-05-27T05:53:18.363Z,988.34
2018-05-27T05:54:18.543Z,988.35
2018-05-27T05:55:18.730Z,988.35
2018-05-27T05:56:18.912Z,988.33
2018-05-27T05:57:19.104Z,988.30
2018-05-27T05:58:19.295Z,988.34
2018-05-27T05:59:19.474Z,988.37
2018-05-27T06:00:19.665Z,988.36
2018-05-27T06:01:19.855Z,988.33
2018-05-27T06:02:20.041Z,988.43
2018-05-27T06:03:20.225Z,988.47
2018-05-27T06:04:20.408Z,988.46
2018-05-27T06:05:20.623Z,988.47
2018-05-27T06:06:20.785Z,988.45
2018-05-27T06:07:20.979Z,988.40
2018-05-27T06:08:21.175Z,988.46
2018-05-27T06:09:21.349Z,988.51
2018-05-27T06:10:21.539Z,988.51
2018-05-27T06:11:21.731Z,988.53
2018-05-27T06:12:21.919Z,988.57
2018-05-27T06:13:22.106Z,988.54
2018-05-27T06:14:22.308Z,988.59
2018-05-27T06:15:22.487Z,988.59
2018-05-27T06:16:22.674Z,988.63
2018-05-27T06:17:22.875Z,988.62
2018-05-27T06:18:23.065Z,988.65
2018-05-27T06:19:23.253Z,988.61
2018-05-27T06:20:23.443Z,988.62
2018-05-27T06:21:23.633Z,988.63
2018-05-27T06:22:23.822Z,988.66
2018-05-27T06:23:24.011Z,988.66
2018-05-27T06:24:24.196Z,988.73
2018-05-27T06:25:24.396Z,988.75
2018-05-27T06:26:24.583Z,988.73
2018-05-27T06:27:24.772Z,988.76
2018-05-27T06:28:24.973Z,988.78
2018-05-27T06:29:25.665Z,988.76
2018-05-27T06:30:25.365Z,988.81
2018-05-27T06:31:25.555Z,988.81
2018-05-27T06:32:25.739Z,988.88
2018-05-27T06:33:25.969Z,988.84
2018-05-27T06:34:26.117Z,988.90
2018-05-27T06:35:26.306Z,988.85
2018-05-27T06:36:26.499Z,988.87
2018-05-27T06:37:26.704Z,988.83
2018-05-27T06:38:26.874Z,988.79
2018-05-27T06:39:27.058Z,988.85
2018-05-27T06:40:27.248Z,988.81
2018-05-27T06:41:27.447Z,988.82
2018-05-27T06:42:27.634Z,988.83
2018-05-27T06:43:27.823Z,988.84
2018-05-27T06:44:28.013Z,988.80
2018-05-27T06:45:28.202Z,988.78
2018-05-27T06:46:28.436Z,988.80
2018-05-27T06:47:28.584Z,988.82
2018-05-27T06:48:28.779Z,988.79
2018-05-27T06:49:28.960Z,988.80
2018-05-27T06:50:29.161Z,988.76
2018-05-27T06:51:29.346Z,988.74
2018-05-27T06:52:29.542Z,988.74
2018-05-27T06:53:29.737Z,988.69
2018-05-27T06:54:29.919Z,988.72
2018-05-27T06:55:30.141Z,988.70
2018-05-27T06:56:30.320Z,988.70
2018-05-27T06:57:30.478Z,988.67
2018-05-27T06:58:30.671Z,988.62
2018-05-27T06:59:30.859Z,988.66
2018-05-27T07:00:31.050Z,988.58
2018-05-27T07:01:31.260Z,988.62
2018-05-27T07:02:31.432Z,988.57
2018-05-27T07:03:32.114Z,988.55
2018-05-27T07:04:31.841Z,988.57
2018-05-27T07:05:31.990Z,988.56
2018-05-27T07:06:32.178Z,988.58
2018-05-27T07:07:32.363Z,988.56
2018-05-27T07:08:32.552Z,988.57
2018-05-27T07:09:32.755Z,988.53
2018-05-27T07:10:32.931Z,988.57
2018-05-27T07:11:33.167Z,988.60
2018-05-27T07:12:33.310Z,988.60
2018-05-27T07:13:33.500Z,988.55
2018-05-27T07:14:33.707Z,988.51
2018-05-27T07:15:33.880Z,988.53
2018-05-27T07:16:34.069Z,988.72
2018-05-27T07:17:34.252Z,988.81
2018-05-27T07:18:34.468Z,988.82
2018-05-27T07:19:34.630Z,988.83
2018-05-27T07:20:34.820Z,988.87
2018-05-27T07:21:35.031Z,988.88
2018-05-27T07:22:35.197Z,988.88
2018-05-27T07:23:35.400Z,988.83
2018-05-27T07:24:35.585Z,988.83
2018-05-27T07:25:35.774Z,988.81
2018-05-27T07:26:35.963Z,988.81
2018-05-27T07:27:36.193Z,988.75
2018-05-27T07:28:36.350Z,988.73
2018-05-27T07:29:36.540Z,988.72
2018-05-27T07:30:36.753Z,988.77
2018-05-27T07:31:36.921Z,988.72
2018-05-27T07:32:37.110Z,988.76
2018-05-27T07:33:37.293Z,988.75
2018-05-27T07:34:37.546Z,988.71
2018-05-27T07:35:37.688Z,988.74
2018-05-27T07:36:37.873Z,988.64
2018-05-27T07:37:38.071Z,988.57
2018-05-27T07:38:38.257Z,988.60
2018-05-27T07:39:38.453Z,988.55
2018-05-27T07:40:38.672Z,988.57
2018-05-27T07:41:38.851Z,988.59
2018-05-27T07:42:39.025Z,988.57
2018-05-27T07:43:39.220Z,988.42
2018-05-27T07:44:39.417Z,988.40
2018-05-27T07:45:39.615Z,988.40
2018-05-27T07:46:39.860Z,988.37
2018-05-27T07:47:40.007Z,988.40
2018-05-27T07:48:40.214Z,988.38
2018-05-27T07:49:40.388Z,988.38
2018-05-27T07:50:40.580Z,988.39
2018-05-27T07:51:40.771Z,988.37
2018-05-27T07:52:40.973Z,988.37
2018-05-27T07:53:41.165Z,988.39
2018-05-27T07:54:41.369Z,988.41
2018-05-27T07:55:41.544Z,988.38
2018-05-27T07:56:41.766Z,988.37
2018-05-27T07:57:41.948Z,988.40
2018-05-27T07:58:42.127Z,988.37
2018-05-27T07:59:42.326Z,988.36
2018-05-27T08:00:42.522Z,988.30
2018-05-27T08:01:42.706Z,988.27
2018-05-27T08:02:42.899Z,988.29
2018-05-27T08:03:43.115Z,988.27
2018-05-27T08:04:43.267Z,988.23
2018-05-27T08:05:43.467Z,988.23
2018-05-27T08:06:43.649Z,988.23
2018-05-27T08:07:43.845Z,988.23
2018-05-27T08:08:44.034Z,988.24
2018-05-27T08:09:44.230Z,988.21
2018-05-27T08:10:44.440Z,988.19
2018-05-27T08:11:44.613Z,988.18
2018-05-27T08:12:44.810Z,988.18
2018-05-27T08:13:45.000Z,988.18
2018-05-27T08:14:45.193Z,988.17
2018-05-27T08:15:45.396Z,988.15
2018-05-27T08:16:45.569Z,988.14
2018-05-27T08:17:45.760Z,988.15
2018-05-27T08:18:45.954Z,988.16
2018-05-27T08:19:46.167Z,988.21
2018-05-27T08:20:46.320Z,988.15
2018-05-27T08:21:46.510Z,988.17
2018-05-27T08:22:46.704Z,988.19
2018-05-27T08:23:46.893Z,988.18
2018-05-27T08:24:47.081Z,988.17
2018-05-27T08:25:47.268Z,988.18
2018-05-27T08:26:47.457Z,988.21
2018-05-27T08:27:47.656Z,988.20
2018-05-27T08:28:47.857Z,988.18
2018-05-27T08:29:48.029Z,988.24
2018-05-27T08:30:48.218Z,988.26
2018-05-27T08:31:48.405Z,988.26
2018-05-27T08:32:48.590Z,988.22
2018-05-27T08:33:48.792Z,988.25
2018-05-27T08:34:48.981Z,988.25
2018-05-27T08:35:49.189Z,988.26
2018-05-27T08:36:49.368Z,988.28
2018-05-27T08:37:49.561Z,988.31
2018-05-27T08:38:49.753Z,988.29
2018-05-27T08:39:49.967Z,988.34
2018-05-27T08:40:50.134Z,988.33
2018-05-27T08:41:50.319Z,988.37
2018-05-27T08:42:50.500Z,988.39
2018-05-27T08:43:50.707Z,988.39
2018-05-27T08:44:50.911Z,988.40
2018-05-27T08:45:51.068Z,988.41
2018-05-27T08:46:51.262Z,988.45
2018-05-27T08:47:51.450Z,988.44
2018-05-27T08:48:51.641Z,988.42
2018-05-27T08:49:51.857Z,988.43
2018-05-27T08:50:52.029Z,988.42
2018-05-27T08:51:52.222Z,988.46
2018-05-27T08:52:52.412Z,988.47
2018-05-27T08:53:52.620Z,988.47
2018-05-27T08:54:52.788Z,988.49
2018-05-27T08:55:52.979Z,988.47
2018-05-27T08:56:53.159Z,988.46
2018-05-27T08:57:53.344Z,988.41
2018-05-27T08:58:53.536Z,988.42
2018-05-27T08:59:53.728Z,988.38
2018-05-27T09:00:53.915Z,988.37
2018-05-27T09:01:54.114Z,988.40
2018-05-27T09:02:54.285Z,988.37
2018-05-27T09:03:54.545Z,988.41
2018-05-27T09:04:54.712Z,988.38
2018-05-27T09:05:54.905Z,988.39
2018-05-27T09:06:55.071Z,988.37
2018-05-27T09:07:55.282Z,988.36
2018-05-27T09:08:55.517Z,988.40
2018-05-27T09:09:55.654Z,988.38
2018-05-27T09:10:55.866Z,988.37
2018-05-27T09:11:56.021Z,988.36
2018-05-27T09:12:56.208Z,988.35
2018-05-27T09:13:56.465Z,988.36
2018-05-27T09:14:56.716Z,988.34
2018-05-27T09:15:56.823Z,988.35
2018-05-27T09:16:57.044Z,988.35
2018-05-27T09:17:57.292Z,988.38
2018-05-27T09:18:57.436Z,988.34
2018-05-27T09:19:57.607Z,988.35
2018-05-27T09:20:57.796Z,988.32
2018-05-27T09:21:58.066Z,988.35
2018-05-27T09:22:58.344Z,988.36
2018-05-27T09:23:58.391Z,988.32
2018-05-27T09:24:58.607Z,988.30
2018-05-27T09:25:58.782Z,988.33
2018-05-27T09:26:58.979Z,988.34
2018-05-27T09:27:59.172Z,988.30
2018-05-27T09:28:59.363Z,988.37
2018-05-27T09:29:59.575Z,988.32
2018-05-27T09:30:59.781Z,988.36
2018-05-27T09:31:59.915Z,988.35
2018-05-27T09:33:00.193Z,988.33
2018-05-27T09:34:00.330Z,988.37
2018-05-27T09:35:00.552Z,988.33
2018-05-27T09:36:00.681Z,988.30
2018-05-27T09:37:00.848Z,988.33
2018-05-27T09:38:01.076Z,988.31
2018-05-27T09:39:01.297Z,988.27
2018-05-27T09:40:01.436Z,988.21
2018-05-27T09:41:01.661Z,988.23
2018-05-27T09:42:01.884Z,988.26
2018-05-27T09:43:02.012Z,988.20
2018-05-27T09:44:02.177Z,988.21
2018-05-27T09:45:02.376Z,988.19
2018-05-27T09:46:02.555Z,988.20
2018-05-27T09:47:02.897Z,988.21
2018-05-27T09:48:02.928Z,988.18
2018-05-27T09:49:03.101Z,988.17
2018-05-27T09:50:03.340Z,988.14
2018-05-27T09:51:03.555Z,988.12
2018-05-27T09:52:03.723Z,988.09
2018-05-27T09:53:03.885Z,988.11
2018-05-27T09:54:04.097Z,988.14
2018-05-27T09:55:04.370Z,988.12
2018-05-27T09:56:04.494Z,988.13
2018-05-27T09:57:04.667Z,988.14
2018-05-27T09:58:04.872Z,988.11
2018-05-27T09:59:05.735Z,988.11
2018-05-27T10:00:05.253Z,988.15
2018-05-27T10:01:05.382Z,988.13
2018-05-27T10:02:05.539Z,988.11
2018-05-27T10:03:05.734Z,988.10
2018-05-27T10:04:05.972Z,988.07
2018-05-27T10:05:06.130Z,988.08
2018-05-27T10:06:06.337Z,988.07
2018-05-27T10:07:06.530Z,988.11
2018-05-27T10:08:06.724Z,988.05
2018-05-27T10:09:06.917Z,988.08
2018-05-27T10:10:07.089Z,988.07
2018-05-27T10:11:07.339Z,988.06
2018-05-27T10:12:07.493Z,988.07
2018-05-27T10:13:07.699Z,988.07
2018-05-27T10:14:07.856Z,988.08
2018-05-27T10:15:08.042Z,988.05
2018-05-27T10:16:08.302Z,988.03
2018-05-27T10:17:08.414Z,988.05
2018-05-27T10:18:08.626Z,988.03
2018-05-27T10:19:08.815Z,988.04
2018-05-27T10:20:08.996Z,988.03
2018-05-27T10:21:09.420Z,988.04
2018-05-27T10:22:09.398Z,987.96
2018-05-27T10:23:09.755Z,988.03
2018-05-27T10:24:09.842Z,988.02
2018-05-27T10:25:10.011Z,987.99
2018-05-27T10:26:10.291Z,987.96
2018-05-27T10:27:10.388Z,987.93
2018-05-27T10:28:10.580Z,987.96
2018-05-27T10:29:10.781Z,987.97
2018-05-27T10:30:10.975Z,987.93
2018-05-27T10:31:11.170Z,987.95
2018-05-27T10:32:11.429Z,987.95
2018-05-27T10:33:11.636Z,987.94
2018-05-27T10:34:11.759Z,987.96
2018-05-27T10:35:16.779Z,987.96
2018-05-27T10:36:12.243Z,987.96
2018-05-27T10:37:12.421Z,987.98
2018-05-27T10:38:12.570Z,987.99
2018-05-27T10:39:12.823Z,987.98
2018-05-27T10:40:12.976Z,987.93
2018-05-27T10:41:13.209Z,987.94
2018-05-27T10:42:13.359Z,987.97
2018-05-27T10:43:13.662Z,987.97
2018-05-27T10:44:13.793Z,987.98
2018-05-27T10:45:13.978Z,987.92
2018-05-27T10:46:14.280Z,987.89
2018-05-27T10:47:14.388Z,987.92
2018-05-27T10:48:14.555Z,987.91
2018-05-27T10:49:14.748Z,987.88
2018-05-27T10:50:14.943Z,987.89
2018-05-27T10:51:15.159Z,987.86
2018-05-27T10:52:15.368Z,987.86
2018-05-27T10:53:15.514Z,987.83
2018-05-27T10:54:15.692Z,987.81
2018-05-27T10:55:15.874Z,987.80
2018-05-27T10:56:16.061Z,987.77
2018-05-27T10:57:16.271Z,987.78
2018-05-27T10:58:16.529Z,987.80
2018-05-27T10:59:16.641Z,987.73
2018-05-27T11:00:16.830Z,987.72
2018-05-27T11:01:17.031Z,987.69
2018-05-27T11:02:17.254Z,987.68
2018-05-27T11:03:17.428Z,987.68
2018-05-27T11:04:17.621Z,987.61
2018-05-27T11:05:17.820Z,987.64
2018-05-27T11:06:18.004Z,987.60
2018-05-27T11:07:18.189Z,987.54
2018-05-27T11:08:18.382Z,987.50
2018-05-27T11:09:18.617Z,987.50
2018-05-27T11:10:18.834Z,987.55
2018-05-27T11:11:19.044Z,987.50
2018-05-27T11:12:19.093Z,987.48
2018-05-27T11:13:19.272Z,987.50
2018-05-27T11:14:19.458Z,987.47
2018-05-27T11:15:19.638Z,987.44
2018-05-27T11:16:19.855Z,987.44
2018-05-27T11:17:20.042Z,987.41
2018-05-27T11:18:20.257Z,987.44
2018-05-27T11:19:20.421Z,987.41
2018-05-27T11:20:20.623Z,987.39
2018-05-27T11:21:20.800Z,987.41
2018-05-27T11:22:20.988Z,987.39
2018-05-27T11:23:21.221Z,987.36
2018-05-27T11:24:21.399Z,987.39
2018-05-27T11:25:21.650Z,987.35
2018-05-27T11:26:21.701Z,987.34
2018-05-27T11:27:21.985Z,987.34
2018-05-27T11:28:22.065Z,987.31
2018-05-27T11:29:22.294Z,987.30
2018-05-27T11:30:22.468Z,987.28
2018-05-27T11:31:22.666Z,987.29
2018-05-27T11:32:22.877Z,987.29
2018-05-27T11:33:23.047Z,987.29
2018-05-27T11:34:23.242Z,987.29
2018-05-27T11:35:23.482Z,987.26
2018-05-27T11:36:23.610Z,987.26
2018-05-27T11:37:23.863Z,987.22
2018-05-27T11:38:24.072Z,987.23
2018-05-27T11:39:24.220Z,987.19
2018-05-27T11:40:24.502Z,987.24
2018-05-27T11:41:24.744Z,987.19
2018-05-27T11:42:24.877Z,987.18
2018-05-27T11:43:24.995Z,987.16
2018-05-27T11:44:25.256Z,987.15
2018-05-27T11:45:25.377Z,987.15
2018-05-27T11:46:25.622Z,987.11
2018-05-27T11:47:25.822Z,987.10
2018-05-27T11:48:26.018Z,987.05
2018-05-27T11:49:26.273Z,987.06
2018-05-27T11:50:26.466Z,987.04
2018-05-27T11:51:26.632Z,987.05
2018-05-27T11:52:26.815Z,987.04
2018-05-27T11:53:26.976Z,987.05
2018-05-27T11:54:27.204Z,987.06
2018-05-27T11:55:27.367Z,987.01
2018-05-27T11:56:27.522Z,987.07
2018-05-27T11:57:27.716Z,987.05
2018-05-27T11:58:27.909Z,987.06
2018-05-27T11:59:28.094Z,987.10
2018-05-27T12:00:28.418Z,987.05
2018-05-27T12:01:28.517Z,987.02
2018-05-27T12:02:28.686Z,987.03
2018-05-27T12:03:28.877Z,987.01
2018-05-27T12:04:29.082Z,987.05
2018-05-27T12:05:29.260Z,987.04
2018-05-27T12:06:29.441Z,987.04
2018-05-27T12:07:29.634Z,987.06
2018-05-27T12:08:29.862Z,987.01
2018-05-27T12:09:30.145Z,986.99
2018-05-27T12:10:30.231Z,986.99
2018-05-27T12:11:30.427Z,986.98
2018-05-27T12:12:30.622Z,986.95
2018-05-27T12:13:30.863Z,986.94
2018-05-27T12:14:31.004Z,986.94
2018-05-27T12:15:31.208Z,986.90
2018-05-27T12:16:31.373Z,986.92
2018-05-27T12:17:31.698Z,986.88
2018-05-27T12:18:31.757Z,986.91
2018-05-27T12:19:32.004Z,986.89
2018-05-27T12:20:32.127Z,986.87
2018-05-27T12:21:32.381Z,986.86
2018-05-27T12:22:32.512Z,986.80
2018-05-27T12:23:32.694Z,986.87
2018-05-27T12:24:32.888Z,986.82
2018-05-27T12:25:33.067Z,986.83
2018-05-27T12:26:33.263Z,986.84
2018-05-27T12:27:33.446Z,986.84
2018-05-27T12:28:33.639Z,986.86
2018-05-27T12:29:33.898Z,986.86
2018-05-27T12:30:34.063Z,986.83